createdAt,value
2016-06-05T00:00:38.961Z,20.21
2016-06-05T00:01:24.808Z,20.17
2016-06-05T00:02:24.826Z,20.16
2016-06-05T00:03:24.860Z,20.21
2016-06-05T00:04:24.878Z,20.13
2016-06-05T00:05:24.897Z,20.13
2016-06-05T00:06:24.947Z,20.16
2016-06-05T00:08:24.982Z,20.1
2016-06-05T00:09:24.861Z,20.1
2016-06-05T00:10:24.879Z,20.06
2016-06-05T00:11:25.054Z,20.08
2016-06-05T00:12:25.260Z,20.1
2016-06-05T00:13:25.106Z,20.16
2016-06-05T00:15:25.157Z,20.13
2016-06-05T00:16:39.379Z,20.06
2016-06-05T00:17:25.210Z,20.11
2016-06-05T00:18:25.244Z,20.1
2016-06-05T00:19:25.279Z,20.14
2016-06-05T00:20:25.296Z,19.99
2016-06-05T00:21:25.315Z,19.95
2016-06-05T00:22:25.349Z,19.76
2016-06-05T00:23:25.367Z,19.76
2016-06-05T00:25:25.420Z,19.66
2016-06-05T00:26:25.438Z,19.59
2016-06-05T00:27:25.315Z,19.56
2016-06-05T00:28:26.178Z,19.58
2016-06-05T00:29:39.711Z,19.44
2016-06-05T00:30:25.542Z,19.41
2016-06-05T00:31:25.576Z,19.4
2016-06-05T00:32:39.781Z,19.32
2016-06-05T00:33:25.613Z,19.39
2016-06-05T00:34:25.647Z,19.39
2016-06-05T00:35:25.680Z,19.33
2016-06-05T00:36:25.699Z,19.32
2016-06-05T00:37:25.733Z,19.33
2016-06-05T00:38:25.752Z,19.28
2016-06-05T00:39:25.769Z,19.21
2016-06-05T00:40:25.803Z,19.19
2016-06-05T00:41:25.838Z,19.19
2016-06-05T00:42:26.684Z,19.14
2016-06-05T00:43:25.890Z,19.1
2016-06-05T00:44:25.907Z,19.02
2016-06-05T00:45:25.927Z,19.07
2016-06-05T00:46:25.819Z,19
2016-06-05T00:47:40.165Z,18.98
2016-06-05T00:48:26.012Z,18.85
2016-06-05T00:49:26.046Z,18.85
2016-06-05T00:50:26.065Z,18.85
2016-06-05T00:51:26.083Z,18.73
2016-06-05T00:52:26.117Z,18.67
2016-06-05T00:53:26.135Z,18.8
2016-06-05T00:54:26.170Z,18.76
2016-06-05T00:55:40.375Z,18.65
2016-06-05T00:56:26.206Z,18.65
2016-06-05T00:57:26.474Z,18.54
2016-06-05T00:58:26.977Z,18.58
2016-06-05T00:59:26.292Z,18.57
2016-06-05T01:00:26.326Z,18.6
2016-06-05T01:01:26.360Z,18.65
2016-06-05T01:02:26.362Z,18.57
2016-06-05T01:03:26.396Z,18.66
2016-06-05T01:04:26.415Z,18.75
2016-06-05T01:05:26.449Z,18.72
2016-06-05T01:06:26.483Z,18.69
2016-06-05T01:07:26.486Z,18.65
2016-06-05T01:08:26.519Z,18.62
2016-06-05T01:09:26.538Z,18.57
2016-06-05T01:10:26.572Z,18.63
2016-06-05T01:11:26.591Z,18.57
2016-06-05T01:13:27.111Z,18.69
2016-06-05T01:14:26.676Z,18.62
2016-06-05T01:15:40.882Z,18.54
2016-06-05T01:16:26.713Z,18.44
2016-06-05T01:17:26.746Z,18.45
2016-06-05T01:18:26.765Z,18.42
2016-06-05T01:19:40.987Z,18.42
2016-06-05T01:20:26.661Z,18.41
2016-06-05T01:21:26.852Z,18.39
2016-06-05T01:22:26.870Z,18.39
2016-06-05T01:23:26.888Z,18.44
2016-06-05T01:24:26.921Z,18.41
2016-06-05T01:25:26.940Z,18.35
2016-06-05T01:26:26.974Z,18.37
2016-06-05T01:27:27.008Z,18.32
2016-06-05T01:28:27.042Z,18.3
2016-06-05T01:29:27.045Z,18.26
2016-06-05T01:30:27.062Z,18.18
2016-06-05T01:31:27.098Z,18.3
2016-06-05T01:32:26.959Z,18.33
2016-06-05T01:33:27.149Z,18.29
2016-06-05T01:34:27.167Z,18.37
2016-06-05T01:35:41.373Z,18.23
2016-06-05T01:36:27.220Z,18.27
2016-06-05T01:37:27.254Z,18.3
2016-06-05T01:38:27.272Z,18.25
2016-06-05T01:39:27.305Z,18.1
2016-06-05T01:40:27.325Z,18.14
2016-06-05T01:41:27.358Z,18.14
2016-06-05T01:42:27.674Z,18.08
2016-06-05T01:43:27.505Z,18.12
2016-06-05T01:44:27.414Z,18.07
2016-06-05T01:45:27.447Z,18.18
2016-06-05T01:46:27.480Z,18.2
2016-06-05T01:47:41.687Z,18.05
2016-06-05T01:48:27.518Z,17.97
2016-06-05T01:49:27.551Z,17.95
2016-06-05T01:50:27.571Z,17.97
2016-06-05T01:51:41.791Z,18.05
2016-06-05T01:52:27.638Z,17.95
2016-06-05T01:53:27.640Z,18.03
2016-06-05T01:54:27.674Z,17.93
2016-06-05T01:55:27.693Z,17.86
2016-06-05T01:57:27.745Z,17.81
2016-06-05T01:58:27.622Z,17.75
2016-06-05T01:59:27.797Z,17.84
2016-06-05T02:00:27.816Z,17.84
2016-06-05T02:01:27.850Z,17.84
2016-06-05T02:02:27.884Z,17.97
2016-06-05T02:03:27.902Z,17.9
2016-06-05T02:04:42.108Z,17.89
2016-06-05T02:06:27.972Z,17.84
2016-06-05T02:07:42.178Z,17.81
2016-06-05T02:08:28.040Z,17.81
2016-06-05T02:09:28.042Z,17.84
2016-06-05T02:10:28.077Z,17.86
2016-06-05T02:11:28.095Z,17.81
2016-06-05T02:12:28.130Z,17.84
2016-06-05T02:13:29.069Z,17.82
2016-06-05T02:14:28.166Z,17.71
2016-06-05T02:15:28.199Z,17.63
2016-06-05T02:16:28.233Z,17.58
2016-06-05T02:17:28.236Z,17.56
2016-06-05T02:18:28.270Z,17.48
2016-06-05T02:19:28.304Z,17.48
2016-06-05T02:21:28.357Z,17.49
2016-06-05T02:22:42.562Z,17.38
2016-06-05T02:23:28.393Z,17.37
2016-06-05T02:24:28.426Z,17.38
2016-06-05T02:25:28.445Z,17.46
2016-06-05T02:26:28.480Z,17.4
2016-06-05T02:27:28.498Z,17.36
2016-06-05T02:28:29.187Z,17.37
2016-06-05T02:29:28.393Z,17.51
2016-06-05T02:30:28.568Z,17.48
2016-06-05T02:31:28.602Z,17.46
2016-06-05T02:32:28.620Z,17.48
2016-06-05T02:33:28.639Z,17.33
2016-06-05T02:34:28.673Z,17.28
2016-06-05T02:35:28.691Z,17.38
2016-06-05T02:36:28.709Z,17.41
2016-06-05T02:37:28.743Z,17.54
2016-06-05T02:38:28.778Z,17.52
2016-06-05T02:39:28.795Z,17.51
2016-06-05T02:40:28.829Z,17.37
2016-06-05T02:41:28.848Z,17.38
2016-06-05T02:42:29.741Z,17.43
2016-06-05T02:44:28.762Z,17.49
2016-06-05T02:45:28.936Z,17.38
2016-06-05T02:46:28.971Z,17.43
2016-06-05T02:47:28.989Z,17.4
2016-06-05T02:48:29.008Z,17.4
2016-06-05T02:49:29.041Z,17.56
2016-06-05T02:50:29.075Z,17.49
2016-06-05T02:51:29.078Z,17.51
2016-06-05T02:52:43.300Z,17.56
2016-06-05T02:53:29.146Z,17.58
2016-06-05T02:54:43.351Z,17.68
2016-06-05T02:55:29.027Z,17.72
2016-06-05T02:56:29.216Z,17.72
2016-06-05T02:57:29.937Z,17.72
2016-06-05T02:58:30.207Z,17.64
2016-06-05T02:59:29.302Z,17.54
2016-06-05T03:00:29.008Z,17.62
2016-06-05T03:01:29.339Z,17.55
2016-06-05T03:02:29.357Z,17.56
2016-06-05T03:03:29.392Z,17.56
2016-06-05T03:04:29.409Z,17.56
2016-06-05T03:05:29.537Z,17.64
2016-06-05T03:06:29.461Z,17.55
2016-06-05T03:07:29.480Z,17.68
2016-06-05T03:08:29.358Z,17.64
2016-06-05T03:09:29.532Z,17.74
2016-06-05T03:10:43.739Z,17.84
2016-06-05T03:11:29.585Z,17.79
2016-06-05T03:13:29.637Z,17.72
2016-06-05T03:14:29.655Z,17.77
2016-06-05T03:15:29.689Z,17.84
2016-06-05T03:16:29.755Z,17.82
2016-06-05T03:17:29.725Z,17.82
2016-06-05T03:18:29.760Z,17.82
2016-06-05T03:19:29.777Z,17.78
2016-06-05T03:20:29.812Z,17.77
2016-06-05T03:22:29.848Z,17.78
2016-06-05T03:23:29.882Z,17.78
2016-06-05T03:25:29.935Z,17.86
2016-06-05T03:26:44.141Z,17.89
2016-06-05T03:27:29.971Z,17.84
2016-06-05T03:28:31.037Z,17.87
2016-06-05T03:29:30.024Z,17.87
2016-06-05T03:30:30.057Z,17.84
2016-06-05T03:31:30.076Z,17.93
2016-06-05T03:32:30.110Z,17.97
2016-06-05T03:33:30.128Z,17.96
2016-06-05T03:34:30.146Z,18.02
2016-06-05T03:35:30.165Z,18.02
2016-06-05T03:36:30.199Z,18.03
2016-06-05T03:37:30.233Z,18.05
2016-06-05T03:38:30.251Z,18.05
2016-06-05T03:39:44.457Z,18.08
2016-06-05T03:40:30.303Z,18.1
2016-06-05T03:41:30.165Z,18.17
2016-06-05T03:42:44.386Z,18.23
2016-06-05T03:43:30.375Z,18.37
2016-06-05T03:44:30.392Z,18.41
2016-06-05T03:45:30.425Z,18.42
2016-06-05T03:46:30.460Z,18.41
2016-06-05T03:47:30.478Z,18.37
2016-06-05T03:49:30.516Z,18.37
2016-06-05T03:50:30.549Z,18.42
2016-06-05T03:51:30.567Z,18.39
2016-06-05T03:52:30.602Z,18.47
2016-06-05T03:53:30.619Z,18.36
2016-06-05T03:54:30.654Z,18.42
2016-06-05T03:55:30.672Z,18.41
2016-06-05T03:57:44.912Z,18.36
2016-06-05T03:58:30.757Z,18.47
2016-06-05T03:59:30.776Z,18.5
2016-06-05T04:00:30.638Z,18.48
2016-06-05T04:01:30.829Z,18.6
2016-06-05T04:02:30.863Z,18.62
2016-06-05T04:03:30.881Z,18.58
2016-06-05T04:04:30.899Z,18.54
2016-06-05T04:05:30.918Z,18.66
2016-06-05T04:06:30.936Z,18.7
2016-06-05T04:07:30.970Z,18.73
2016-06-05T04:08:30.987Z,18.75
2016-06-05T04:09:31.037Z,18.73
2016-06-05T04:12:45.280Z,20.51
2016-06-05T04:13:31.720Z,21.21
2016-06-05T04:14:31.145Z,21.86
2016-06-05T04:15:31.195Z,22.51
2016-06-05T04:16:31.197Z,23.16
2016-06-05T04:17:31.238Z,23.43
2016-06-05T04:18:31.284Z,23.72
2016-06-05T04:19:31.329Z,23.72
2016-06-05T04:20:31.392Z,24.09
2016-06-05T04:21:31.453Z,24.47
2016-06-05T04:22:45.526Z,24.57
2016-06-05T04:23:31.538Z,24.91
2016-06-05T04:24:31.582Z,25.17
2016-06-05T04:25:31.611Z,25.5
2016-06-05T04:26:31.655Z,25.92
2016-06-05T04:27:45.869Z,26.01
2016-06-05T04:28:32.485Z,26.35
2016-06-05T04:29:45.945Z,26.67
2016-06-05T04:30:31.795Z,26.87
2016-06-05T04:32:31.854Z,27.09
2016-06-05T04:33:31.873Z,27.18
2016-06-05T04:34:31.925Z,27.29
2016-06-05T04:35:31.943Z,27.13
2016-06-05T04:36:31.963Z,27.43
2016-06-05T04:37:31.997Z,27.41
2016-06-05T04:38:32.032Z,27.59
2016-06-05T04:39:32.081Z,27.82
2016-06-05T04:40:32.101Z,27.78
2016-06-05T04:41:46.307Z,28.21
2016-06-05T04:42:32.154Z,28.37
2016-06-05T04:43:32.252Z,28.48
2016-06-05T04:44:46.411Z,29.08
2016-06-05T04:45:46.428Z,29.36
2016-06-05T04:46:32.276Z,29.28
2016-06-05T04:47:32.309Z,29.19
2016-06-05T04:48:32.344Z,29.55
2016-06-05T04:49:32.378Z,29.53
2016-06-05T04:50:32.411Z,29.86
2016-06-05T04:51:32.445Z,29.82
2016-06-05T04:52:32.464Z,30.02
2016-06-05T04:53:32.498Z,30.31
2016-06-05T04:54:32.532Z,30.51
2016-06-05T04:55:32.566Z,30.77
2016-06-05T04:58:32.980Z,31.1
2016-06-05T04:59:32.686Z,30.92
2016-06-05T05:00:32.735Z,30.79
2016-06-05T05:01:46.941Z,30.86
2016-06-05T05:02:32.788Z,30.92
2016-06-05T05:03:32.821Z,31.62
2016-06-05T05:04:32.855Z,32.1
2016-06-05T05:05:32.890Z,31.72
2016-06-05T05:06:32.924Z,31.56
2016-06-05T05:07:32.957Z,31.38
2016-06-05T05:08:32.991Z,31.47
2016-06-05T05:09:33.026Z,31.44
2016-06-05T05:10:33.076Z,31.41
2016-06-05T05:11:47.281Z,31.89
2016-06-05T05:12:32.986Z,32.1
2016-06-05T05:13:33.677Z,32.48
2016-06-05T05:14:33.195Z,32.89
2016-06-05T05:15:33.229Z,32.96
2016-06-05T05:16:33.262Z,32.96
2016-06-05T05:17:47.484Z,32.82
2016-06-05T05:18:33.331Z,33.12
2016-06-05T05:19:33.364Z,33.54
2016-06-05T05:20:33.398Z,33.86
2016-06-05T05:21:33.433Z,33.94
2016-06-05T05:22:33.467Z,33.65
2016-06-05T05:23:33.501Z,33.72
2016-06-05T05:24:33.534Z,33.49
2016-06-05T05:25:33.584Z,33.44
2016-06-05T05:27:33.496Z,33.72
2016-06-05T05:28:34.811Z,33.93
2016-06-05T05:29:33.719Z,33.98
2016-06-05T05:30:47.941Z,33.71
2016-06-05T05:31:33.788Z,33.93
2016-06-05T05:32:48.010Z,33.84
2016-06-05T05:33:33.855Z,33.72
2016-06-05T05:34:33.890Z,33.94
2016-06-05T05:35:33.923Z,33.86
2016-06-05T05:36:33.957Z,33.78
2016-06-05T05:37:33.991Z,33.5
2016-06-05T05:38:34.041Z,33.82
2016-06-05T05:39:34.059Z,34.59
2016-06-05T05:40:34.093Z,34.61
2016-06-05T05:41:34.143Z,34.64
2016-06-05T05:42:34.240Z,34.87
2016-06-05T05:43:34.726Z,34.91
2016-06-05T05:44:34.244Z,35.26
2016-06-05T05:45:34.123Z,35.53
2016-06-05T05:46:48.515Z,35.77
2016-06-05T05:47:34.346Z,35.66
2016-06-05T05:48:34.395Z,35.68
2016-06-05T05:50:34.308Z,35.8
2016-06-05T05:51:34.498Z,35.68
2016-06-05T05:52:34.531Z,35.89
2016-06-05T05:53:34.581Z,35.23
2016-06-05T05:54:34.615Z,35.06
2016-06-05T05:55:34.649Z,34.89
2016-06-05T05:56:34.683Z,35.06
2016-06-05T05:57:34.733Z,35.29
2016-06-05T05:58:34.767Z,35.34
2016-06-05T05:59:34.660Z,35.45
2016-06-05T06:00:34.835Z,35.5
2016-06-05T06:01:34.869Z,35.56
2016-06-05T06:02:34.902Z,35.23
2016-06-05T06:03:34.952Z,35.1
2016-06-05T06:04:49.174Z,35
2016-06-05T06:05:35.019Z,35.15
2016-06-05T06:06:35.054Z,34.99
2016-06-05T06:07:35.087Z,35.85
2016-06-05T06:08:35.121Z,36.03
2016-06-05T06:09:35.155Z,36.41
2016-06-05T06:10:35.204Z,36.5
2016-06-05T06:11:35.239Z,36.31
2016-06-05T06:12:35.273Z,36.5
2016-06-05T06:13:35.448Z,36.85
2016-06-05T06:14:35.356Z,37.34
2016-06-05T06:15:35.375Z,37.57
2016-06-05T06:16:35.424Z,37.1
2016-06-05T06:17:35.458Z,37.13
2016-06-05T06:18:35.336Z,37.06
2016-06-05T06:19:49.714Z,36.46
2016-06-05T06:20:49.764Z,36.43
2016-06-05T06:21:35.609Z,36.6
2016-06-05T06:22:35.644Z,36.91
2016-06-05T06:23:35.677Z,36.99
2016-06-05T06:24:35.712Z,37.13
2016-06-05T06:25:35.761Z,37.21
2016-06-05T06:26:35.794Z,37.13
2016-06-05T06:27:35.828Z,37.36
2016-06-05T06:28:36.175Z,37.28
2016-06-05T06:29:35.912Z,36.94
2016-06-05T06:30:50.133Z,37.27
2016-06-05T06:31:35.980Z,37.64
2016-06-05T06:32:36.030Z,37.84
2016-06-05T06:33:35.891Z,37.76
2016-06-05T06:34:50.285Z,38.28
2016-06-05T06:35:35.975Z,38.83
2016-06-05T06:36:50.368Z,38.96
2016-06-05T06:37:36.215Z,39.03
2016-06-05T06:38:36.093Z,38.6
2016-06-05T06:39:36.283Z,38.18
2016-06-05T06:40:36.332Z,37.85
2016-06-05T06:41:36.366Z,37.86
2016-06-05T06:42:36.260Z,37.67
2016-06-05T06:43:36.450Z,37.82
2016-06-05T06:44:36.484Z,38.11
2016-06-05T06:45:36.518Z,37.89
2016-06-05T06:46:50.754Z,38.6
2016-06-05T06:47:36.587Z,38.78
2016-06-05T06:48:50.823Z,38.69
2016-06-05T06:49:36.669Z,38.79
2016-06-05T06:50:50.890Z,38.09
2016-06-05T06:51:36.737Z,37.76
2016-06-05T06:52:50.975Z,37.63
2016-06-05T06:53:36.820Z,37.74
2016-06-05T06:54:36.870Z,37.55
2016-06-05T06:55:36.903Z,37.05
2016-06-05T06:56:36.938Z,37.17
2016-06-05T06:57:37.003Z,37.5
2016-06-05T06:58:37.100Z,37.44
2016-06-05T06:59:37.055Z,37.03
2016-06-05T07:00:37.105Z,37.09
2016-06-05T07:01:37.124Z,37.43
2016-06-05T07:02:37.172Z,37.03
2016-06-05T07:03:37.050Z,37.36
2016-06-05T07:04:37.257Z,37.59
2016-06-05T07:05:37.291Z,37.7
2016-06-05T07:06:37.325Z,37.4
2016-06-05T07:07:51.546Z,37.25
2016-06-05T07:08:37.408Z,37.55
2016-06-05T07:09:37.442Z,37.47
2016-06-05T07:10:37.476Z,38.11
2016-06-05T07:11:37.525Z,38.34
2016-06-05T07:12:38.028Z,38.79
2016-06-05T07:13:37.610Z,38.84
2016-06-05T07:14:37.627Z,38.69
2016-06-05T07:15:37.693Z,38.41
2016-06-05T07:16:37.710Z,38.3
2016-06-05T07:17:37.744Z,38.79
2016-06-05T07:18:51.982Z,39.03
2016-06-05T07:19:37.829Z,38.98
2016-06-05T07:20:37.862Z,38.83
2016-06-05T07:21:37.911Z,38.59
2016-06-05T07:22:52.133Z,38.38
2016-06-05T07:23:37.979Z,38.69
2016-06-05T07:24:38.014Z,38.86
2016-06-05T07:25:38.063Z,39.52
2016-06-05T07:26:38.097Z,39.59
2016-06-05T07:27:38.147Z,39.85
2016-06-05T07:28:38.181Z,39.81
2016-06-05T07:29:38.214Z,39.7
2016-06-05T07:30:38.311Z,39.54
2016-06-05T07:32:38.332Z,39.72
2016-06-05T07:33:38.225Z,39.72
2016-06-05T07:34:38.416Z,39.59
2016-06-05T07:35:38.465Z,39.5
2016-06-05T07:37:52.720Z,39.81
2016-06-05T07:38:38.567Z,39.41
2016-06-05T07:39:52.788Z,39.36
2016-06-05T07:40:38.650Z,39.18
2016-06-05T07:41:38.684Z,38.83
2016-06-05T07:42:38.718Z,39.13
2016-06-05T07:43:38.783Z,38.42
2016-06-05T07:44:39.614Z,37.64
2016-06-05T07:45:38.835Z,37.6
2016-06-05T07:46:38.901Z,37.64
2016-06-05T07:47:38.919Z,37.79
2016-06-05T07:48:38.953Z,38.04
2016-06-05T07:49:53.034Z,38.5
2016-06-05T07:50:39.037Z,38.59
2016-06-05T07:51:39.070Z,38.46
2016-06-05T07:52:38.948Z,38.78
2016-06-05T07:53:39.170Z,39.17
2016-06-05T07:54:39.187Z,39.25
2016-06-05T07:55:53.425Z,39.43
2016-06-05T07:56:39.272Z,39.29
2016-06-05T07:57:39.899Z,39.35
2016-06-05T07:58:39.746Z,39.81
2016-06-05T07:59:39.389Z,40.04
2016-06-05T08:00:39.438Z,39.82
2016-06-05T08:01:39.473Z,40.31
2016-06-05T08:02:39.506Z,39.96
2016-06-05T08:03:39.540Z,40.01
2016-06-05T08:04:39.574Z,39.66
2016-06-05T08:05:39.624Z,39.41
2016-06-05T08:06:39.658Z,39.18
2016-06-05T08:08:53.929Z,39.1
2016-06-05T08:09:39.775Z,38.15
2016-06-05T08:10:53.996Z,38.38
2016-06-05T08:11:54.046Z,38.66
2016-06-05T08:12:39.908Z,38.9
2016-06-05T08:13:39.786Z,38.6
2016-06-05T08:14:39.820Z,38.38
2016-06-05T08:15:40.009Z,38.49
2016-06-05T08:16:40.043Z,38.88
2016-06-05T08:17:40.078Z,38.87
2016-06-05T08:18:40.127Z,38.95
2016-06-05T08:19:40.208Z,38.3
2016-06-05T08:20:40.039Z,36.72
2016-06-05T08:21:40.229Z,36.56
2016-06-05T08:22:40.278Z,36.83
2016-06-05T08:23:40.329Z,37
2016-06-05T08:24:54.550Z,37.67
2016-06-05T08:25:54.584Z,37.69
2016-06-05T08:27:54.995Z,37.44
2016-06-05T08:29:40.548Z,37.09
2016-06-05T08:30:40.581Z,37.28
2016-06-05T08:31:40.616Z,36.62
2016-06-05T08:32:40.665Z,36.56
2016-06-05T08:33:40.700Z,36.88
2016-06-05T08:34:40.577Z,36.84
2016-06-05T08:35:40.783Z,37.05
2016-06-05T08:36:40.816Z,37.31
2016-06-05T08:37:40.850Z,37.22
2016-06-05T08:38:40.884Z,37.88
2016-06-05T08:40:40.968Z,38.87
2016-06-05T08:41:41.002Z,38.98
2016-06-05T08:42:55.224Z,39.18
2016-06-05T08:44:40.947Z,37.06
2016-06-05T08:45:41.154Z,36.9
2016-06-05T08:46:41.187Z,37.18
2016-06-05T08:47:41.221Z,37.43
2016-06-05T08:48:41.255Z,37.67
2016-06-05T08:49:41.304Z,38.26
2016-06-05T08:50:41.338Z,38.6
2016-06-05T08:51:41.373Z,38.81
2016-06-05T08:52:41.406Z,39.21
2016-06-05T08:53:41.456Z,39.35
2016-06-05T08:54:41.505Z,39.14
2016-06-05T08:56:55.745Z,39.28
2016-06-05T08:57:41.295Z,39.17
2016-06-05T08:58:41.484Z,39.09
2016-06-05T08:59:41.675Z,38.65
2016-06-05T09:00:41.709Z,38.25
2016-06-05T09:01:41.759Z,38.63
2016-06-05T09:02:41.777Z,38.68
2016-06-05T09:03:41.827Z,38.99
2016-06-05T09:04:41.861Z,38.93
2016-06-05T09:05:41.895Z,39.1
2016-06-05T09:06:41.928Z,39.09
2016-06-05T09:07:56.181Z,39.21
2016-06-05T09:08:42.012Z,39.22
2016-06-05T09:09:56.233Z,39.59
2016-06-05T09:10:42.080Z,39.44
2016-06-05T09:11:56.301Z,39.17
2016-06-05T09:12:42.538Z,39.22
2016-06-05T09:13:42.869Z,38.44
2016-06-05T09:14:56.418Z,38.13
2016-06-05T09:15:42.280Z,38.31
2016-06-05T09:16:42.143Z,38.15
2016-06-05T09:17:42.349Z,38.34
2016-06-05T09:18:42.382Z,38.38
2016-06-05T09:19:42.416Z,38.88
2016-06-05T09:20:42.466Z,38.86
2016-06-05T09:21:42.485Z,39.22
2016-06-05T09:22:42.518Z,39.28
2016-06-05T09:23:42.567Z,39.25
2016-06-05T09:24:42.445Z,39.59
2016-06-05T09:25:42.637Z,39.62
2016-06-05T09:26:42.670Z,40.07
2016-06-05T09:27:43.547Z,40.18
2016-06-05T09:28:42.987Z,40.38
2016-06-05T09:29:42.787Z,40.51
2016-06-05T09:30:57.009Z,40.57
2016-06-05T09:31:42.855Z,40.35
2016-06-05T09:32:42.905Z,39.84
2016-06-05T09:33:42.939Z,40.15
2016-06-05T09:34:42.973Z,40
2016-06-05T09:35:43.006Z,40.23
2016-06-05T09:36:43.040Z,40.35
2016-06-05T09:37:43.074Z,39.64
2016-06-05T09:38:43.108Z,39.1
2016-06-05T09:39:43.142Z,38.9
2016-06-05T09:40:43.191Z,38.79
2016-06-05T09:41:43.226Z,38.41
2016-06-05T09:42:43.291Z,38.03
2016-06-05T09:43:43.684Z,37.64
2016-06-05T09:44:43.327Z,37.79
2016-06-05T09:45:43.205Z,38.22
2016-06-05T09:46:57.599Z,38.74
2016-06-05T09:47:43.445Z,38.87
2016-06-05T09:48:43.479Z,38.9
2016-06-05T09:49:43.529Z,38.76
2016-06-05T09:50:43.547Z,38.9
2016-06-05T09:51:43.581Z,38.04
2016-06-05T09:52:43.630Z,37.94
2016-06-05T09:53:43.664Z,37.86
2016-06-05T09:54:43.698Z,38.09
2016-06-05T09:55:43.732Z,38.61
2016-06-05T09:56:57.970Z,37.37
2016-06-05T09:57:43.815Z,36.88
2016-06-05T09:58:44.615Z,36.31
2016-06-05T09:59:58.071Z,35.58
2016-06-05T10:00:43.918Z,35.31
2016-06-05T10:01:43.951Z,34.56
2016-06-05T10:02:58.173Z,35.19
2016-06-05T10:03:44.019Z,35.74
2016-06-05T10:04:58.272Z,36.68
2016-06-05T10:05:44.086Z,37.06
2016-06-05T10:06:44.137Z,37.81
2016-06-05T10:07:44.186Z,38.15
2016-06-05T10:08:44.205Z,38.54
2016-06-05T10:09:44.238Z,38.83
2016-06-05T10:10:44.272Z,39.21
2016-06-05T10:11:44.306Z,39.69
2016-06-05T10:12:45.059Z,39.66
2016-06-05T10:13:44.390Z,38.52
2016-06-05T10:14:44.423Z,37.75
2016-06-05T10:15:58.645Z,37.43
2016-06-05T10:16:59.179Z,37.43
2016-06-05T10:17:58.713Z,37.72
2016-06-05T10:18:44.621Z,37.17
2016-06-05T10:19:44.687Z,37.09
2016-06-05T10:20:44.674Z,36.95
2016-06-05T10:21:44.676Z,36.59
2016-06-05T10:22:44.695Z,36.46
2016-06-05T10:23:44.745Z,36.07
2016-06-05T10:24:44.779Z,35.6
2016-06-05T10:25:44.813Z,35.5
2016-06-05T10:26:44.846Z,35.53
2016-06-05T10:27:45.895Z,35.18
2016-06-05T10:28:45.321Z,34.81
2016-06-05T10:29:44.949Z,34.69
2016-06-05T10:30:59.170Z,34.46
2016-06-05T10:31:45.016Z,34.42
2016-06-05T10:32:45.066Z,34.35
2016-06-05T10:33:45.084Z,34.34
2016-06-05T10:34:45.118Z,34.1
2016-06-05T10:35:45.152Z,34.02
2016-06-05T10:36:45.186Z,33.98
2016-06-05T10:37:45.220Z,33.76
2016-06-05T10:38:45.269Z,33.65
2016-06-05T10:39:45.319Z,33.5
2016-06-05T10:40:45.338Z,33.44
2016-06-05T10:41:45.371Z,33.23
2016-06-05T10:42:59.452Z,33.21
2016-06-05T10:43:46.111Z,33.44
2016-06-05T10:44:59.660Z,33.39
2016-06-05T10:45:45.508Z,33.26
2016-06-05T10:47:45.574Z,32.96
2016-06-05T10:48:45.609Z,32.93
2016-06-05T10:49:59.830Z,32.33
2016-06-05T10:50:45.677Z,32.13
2016-06-05T10:51:45.710Z,32.13
2016-06-05T10:52:45.588Z,31.91
2016-06-05T10:53:45.622Z,31.76
2016-06-05T10:54:45.813Z,31.76
2016-06-05T10:55:45.846Z,31.93
2016-06-05T10:56:45.881Z,32.03
2016-06-05T10:58:46.136Z,31.99
2016-06-05T10:59:45.967Z,31.88
2016-06-05T11:00:46.016Z,31.85
2016-06-05T11:01:46.050Z,31.54
2016-06-05T11:03:00.256Z,31.69
2016-06-05T11:03:46.103Z,31.7
2016-06-05T11:04:46.153Z,31.8
2016-06-05T11:06:00.358Z,31.72
2016-06-05T11:06:46.203Z,31.7
2016-06-05T11:07:46.253Z,31.72
2016-06-05T11:08:46.116Z,31.46
2016-06-05T11:09:46.306Z,31.07
2016-06-05T11:10:46.356Z,30.79
2016-06-05T11:11:46.389Z,30.01
2016-06-05T11:12:47.924Z,29.55
2016-06-05T11:13:46.458Z,29.28
2016-06-05T11:14:46.476Z,28.92
2016-06-05T11:15:46.509Z,28.67
2016-06-05T11:16:46.527Z,28.36
2016-06-05T11:17:46.577Z,28.03
2016-06-05T11:18:46.611Z,27.67
2016-06-05T11:19:46.630Z,27.46
2016-06-05T11:21:00.851Z,27.24
2016-06-05T11:22:00.885Z,26.99
2016-06-05T11:22:46.746Z,26.89
2016-06-05T11:23:46.749Z,26.8
2016-06-05T11:24:46.799Z,26.8
2016-06-05T11:25:46.662Z,26.94
2016-06-05T11:26:46.852Z,26.94
2016-06-05T11:27:47.871Z,27.03
2016-06-05T11:28:47.295Z,26.85
2016-06-05T11:29:46.798Z,26.95
2016-06-05T11:30:46.987Z,27.06
2016-06-05T11:31:47.006Z,26.94
2016-06-05T11:33:01.228Z,26.89
2016-06-05T11:33:47.073Z,26.94
2016-06-05T11:34:47.108Z,27
2016-06-05T11:35:47.142Z,26.92
2016-06-05T11:36:47.175Z,26.92
2016-06-05T11:38:01.397Z,26.97
2016-06-05T11:38:47.228Z,27.04
2016-06-05T11:39:47.262Z,27.27
2016-06-05T11:40:47.295Z,27.24
2016-06-05T11:41:47.330Z,27.32
2016-06-05T11:42:47.363Z,27.17
2016-06-05T11:43:48.007Z,27.14
2016-06-05T11:44:47.431Z,27.12
2016-06-05T11:45:47.450Z,27.31
2016-06-05T11:46:47.343Z,27.32
2016-06-05T11:47:47.518Z,27.47
2016-06-05T11:48:47.567Z,27.54
2016-06-05T11:49:47.585Z,27.57
2016-06-05T11:50:47.635Z,27.46
2016-06-05T11:51:47.637Z,27.51
2016-06-05T11:53:01.859Z,27.97
2016-06-05T11:53:47.691Z,28.11
2016-06-05T11:54:47.724Z,28.33
2016-06-05T11:55:47.601Z,28.54
2016-06-05T11:56:47.792Z,28.8
2016-06-05T11:57:48.201Z,28.81
2016-06-05T11:58:47.718Z,28.64
2016-06-05T11:59:47.878Z,28.7
2016-06-05T12:00:47.912Z,28.56
2016-06-05T12:01:47.945Z,28.64
2016-06-05T12:02:47.964Z,28.62
2016-06-05T12:03:48.014Z,28.77
2016-06-05T12:04:48.047Z,29.02
2016-06-05T12:05:48.082Z,29.21
2016-06-05T12:06:48.116Z,29.43
2016-06-05T12:07:48.133Z,29.52
2016-06-05T12:08:48.168Z,29.58
2016-06-05T12:09:48.203Z,29.71
2016-06-05T12:10:48.220Z,29.86
2016-06-05T12:11:48.286Z,29.89
2016-06-05T12:12:48.320Z,30.05
2016-06-05T12:13:48.181Z,30.01
2016-06-05T12:15:48.390Z,30.02
2016-06-05T12:16:48.408Z,29.86
2016-06-05T12:17:48.457Z,29.86
2016-06-05T12:18:48.477Z,29.8
2016-06-05T12:19:48.354Z,29.68
2016-06-05T12:21:48.625Z,29.74
2016-06-05T12:22:48.612Z,29.71
2016-06-05T12:24:02.833Z,29.87
2016-06-05T12:25:02.851Z,29.79
2016-06-05T12:25:48.699Z,29.74
2016-06-05T12:26:48.731Z,29.89
2016-06-05T12:27:49.406Z,29.92
2016-06-05T12:28:49.393Z,30.07
2016-06-05T12:29:48.834Z,30.07
2016-06-05T12:30:48.867Z,30.15
2016-06-05T12:31:48.901Z,30.29
2016-06-05T12:32:48.920Z,30.24
2016-06-05T12:33:48.954Z,30.27
2016-06-05T12:34:48.988Z,30.47
2016-06-05T12:37:49.090Z,30.6
2016-06-05T12:39:03.311Z,30.53
2016-06-05T12:39:49.158Z,30.55
2016-06-05T12:41:03.363Z,30.43
2016-06-05T12:41:49.210Z,30.38
2016-06-05T12:42:49.822Z,30.46
2016-06-05T12:44:03.528Z,30.43
2016-06-05T12:44:49.312Z,30.46
2016-06-05T12:45:49.345Z,30.54
2016-06-05T12:46:49.380Z,30.57
2016-06-05T12:47:49.413Z,30.62
2016-06-05T12:49:49.466Z,30.92
2016-06-05T12:50:49.499Z,31.02
2016-06-05T12:53:49.602Z,30.62
2016-06-05T12:54:49.666Z,30.49
2016-06-05T12:55:49.669Z,30.42
2016-06-05T12:57:03.891Z,30.39
2016-06-05T12:58:49.771Z,30.11
2016-06-05T12:59:49.789Z,30.01
2016-06-05T13:00:49.824Z,30.05
2016-06-05T13:01:49.857Z,29.95
2016-06-05T13:02:49.890Z,29.98
2016-06-05T13:03:49.910Z,29.82
2016-06-05T13:04:49.943Z,29.43
2016-06-05T13:05:49.993Z,28.81
2016-06-05T13:06:50.012Z,28.44
2016-06-05T13:07:50.045Z,28.39
2016-06-05T13:08:50.079Z,28.27
2016-06-05T13:09:50.113Z,28.22
2016-06-05T13:10:50.147Z,27.81
2016-06-05T13:11:50.181Z,27.37
2016-06-05T13:13:04.637Z,26.85
2016-06-05T13:13:51.233Z,26.4
2016-06-05T13:14:50.283Z,26.01
2016-06-05T13:15:50.301Z,25.72
2016-06-05T13:16:50.335Z,25.3
2016-06-05T13:17:50.353Z,25.2
2016-06-05T13:18:50.388Z,24.8
2016-06-05T13:19:50.421Z,24.77
2016-06-05T13:20:50.439Z,24.91
2016-06-05T13:21:50.474Z,25
2016-06-05T13:22:50.507Z,25
2016-06-05T13:23:50.568Z,24.95
2016-06-05T13:24:50.609Z,24.95
2016-06-05T13:25:50.667Z,24.76
2016-06-05T13:26:50.724Z,24.61
2016-06-05T13:28:04.953Z,24.42
2016-06-05T13:28:50.816Z,24.43
2016-06-05T13:29:50.843Z,24.32
2016-06-05T13:30:50.886Z,24.16
2016-06-05T13:31:50.928Z,24.34
2016-06-05T13:32:50.971Z,24.42
2016-06-05T13:33:51.010Z,24.58